sensor_id;sensor_type;location;lat;lon;timestamp;pressure;altitude;pressure_sealevel;temperature;humidity
77939;BME280;67136;47.546;21.630;2024-01-15T00:00:14;99127.22;;;-3.14;100.00
77939;BME280;67136;47.546;21.630;2024-01-15T00:03:17;99126.88;;;-3.06;100.00
77939;BME280;67136;47.546;21.630;2024-01-15T00:06:22;99120.78;;;-3.04;100.00
77939;BME280;67136;47.546;21.630;2024-01-15T00:09:25;99124.72;;;-2.97;100.00
77939;BME280;67136;47.546;21.630;2024-01-15T00:12:29;99120.34;;;-2.95;100.00
77939;BME280;67136;47.546;21.630;2024-01-15T00:15:32;99124.44;;;-2.91;100.00
77939;BME280;67136;47.546;21.630;2024-01-15T00:18:36;99113.22;;;-2.88;100.00
77939;BME280;67136;47.546;21.630;2024-01-15T00:21:39;99104.59;;;-2.86;100.00
77939;BME280;67136;47.546;21.630;2024-01-15T00:24:41;99088.50;;;-2.88;100.00
77939;BME280;67136;47.546;21.630;2024-01-15T00:27:45;99091.25;;;-2.92;100.00
77939;BME280;67136;47.546;21.630;2024-01-15T00:30:47;99073.03;;;-3.03;100.00
77939;BME280;67136;47.546;21.630;2024-01-15T00:33:50;99068.78;;;-3.03;100.00
77939;BME280;67136;47.546;21.630;2024-01-15T00:36:53;99071.94;;;-2.98;100.00
77939;BME280;67136;47.546;21.630;2024-01-15T00:39:56;99071.34;;;-2.86;100.00
77939;BME280;67136;47.546;21.630;2024-01-15T00:42:59;99069.09;;;-2.75;100.00
77939;BME280;67136;47.546;21.630;2024-01-15T00:46:02;99071.25;;;-2.67;100.00
77939;BME280;67136;47.546;21.630;2024-01-15T00:49:05;99074.44;;;-2.62;100.00
77939;BME280;67136;47.546;21.630;2024-01-15T00:52:08;99063.16;;;-2.58;100.00
77939;BME280;67136;47.546;21.630;2024-01-15T00:55:10;99074.00;;;-2.53;100.00
77939;BME280;67136;47.546;21.630;2024-01-15T00:58:13;99059.31;;;-2.49;100.00
77939;BME280;67136;47.546;21.630;2024-01-15T01:01:15;99049.59;;;-2.43;100.00
77939;BME280;67136;47.546;21.630;2024-01-15T01:04:18;99034.00;;;-2.38;100.00
77939;BME280;67136;47.546;21.630;2024-01-15T01:07:20;99036.28;;;-2.32;100.00
77939;BME280;67136;47.546;21.630;2024-01-15T01:10:23;99029.94;;;-2.25;100.00
77939;BME280;67136;47.546;21.630;2024-01-15T01:13:25;99027.22;;;-2.22;100.00
77939;BME280;67136;47.546;21.630;2024-01-15T01:16:28;99027.81;;;-2.17;100.00
77939;BME280;67136;47.546;21.630;2024-01-15T01:19:32;99021.69;;;-2.15;100.00
77939;BME280;67136;47.546;21.630;2024-01-15T01:22:35;99007.94;;;-2.12;100.00
77939;BME280;67136;47.546;21.630;2024-01-15T01:25:39;99005.94;;;-2.07;100.00
77939;BME280;67136;47.546;21.630;2024-01-15T01:28:42;99005.03;;;-2.06;100.00
77939;BME280;67136;47.546;21.630;2024-01-15T01:31:44;98998.84;;;-2.02;100.00
77939;BME280;67136;47.546;21.630;2024-01-15T01:34:48;98986.81;;;-2.00;100.00
77939;BME280;67136;47.546;21.630;2024-01-15T01:37:51;98986.72;;;-1.99;100.00
77939;BME280;67136;47.546;21.630;2024-01-15T01:40:56;98993.47;;;-1.98;100.00
77939;BME280;67136;47.546;21.630;2024-01-15T01:43:59;98976.41;;;-1.97;100.00
77939;BME280;67136;47.546;21.630;2024-01-15T01:47:02;98971.78;;;-1.91;100.00
77939;BME280;67136;47.546;21.630;2024-01-15T01:50:06;98964.00;;;-1.89;100.00
77939;BME280;67136;47.546;21.630;2024-01-15T01:53:09;98969.78;;;-1.86;100.00
77939;BME280;67136;47.546;21.630;2024-01-15T01:56:12;98964.31;;;-1.80;100.00
77939;BME280;67136;47.546;21.630;2024-01-15T01:59:15;98965.91;;;-1.77;100.00
77939;BME280;67136;47.546;21.630;2024-01-15T02:02:18;98957.97;;;-1.73;100.00
77939;BME280;67136;47.546;21.630;2024-01-15T02:05:22;98944.19;;;-1.70;100.00
77939;BME280;67136;47.546;21.630;2024-01-15T02:08:25;98949.97;;;-1.67;100.00
77939;BME280;67136;47.546;21.630;2024-01-15T02:11:28;98950.47;;;-1.60;100.00
77939;BME280;67136;47.546;21.630;2024-01-15T02:14:31;98934.56;;;-1.51;100.00
77939;BME280;67136;47.546;21.630;2024-01-15T02:17:34;98931.84;;;-1.48;100.00
77939;BME280;67136;47.546;21.630;2024-01-15T02:20:39;98924.97;;;-1.48;100.00
77939;BME280;67136;47.546;21.630;2024-01-15T02:23:42;98921.25;;;-1.42;100.00
77939;BME280;67136;47.546;21.630;2024-01-15T02:26:44;98915.75;;;-1.36;100.00
77939;BME280;67136;47.546;21.630;2024-01-15T02:29:48;98921.44;;;-1.31;100.00
77939;BME280;67136;47.546;21.630;2024-01-15T02:32:51;98916.31;;;-1.31;100.00
77939;BME280;67136;47.546;21.630;2024-01-15T02:35:54;98907.47;;;-1.26;100.00
77939;BME280;67136;47.546;21.630;2024-01-15T02:38:56;98911.34;;;-1.18;100.00
77939;BME280;67136;47.546;21.630;2024-01-15T02:41:59;98899.19;;;-1.15;100.00
77939;BME280;67136;47.546;21.630;2024-01-15T02:45:04;98889.56;;;-1.11;100.00
77939;BME280;67136;47.546;21.630;2024-01-15T02:48:07;98887.28;;;-1.02;100.00
77939;BME280;67136;47.546;21.630;2024-01-15T02:51:10;98884.38;;;-0.96;100.00
77939;BME280;67136;47.546;21.630;2024-01-15T02:54:13;98878.16;;;-0.92;100.00
77939;BME280;67136;47.546;21.630;2024-01-15T02:57:15;98866.72;;;-0.86;100.00
77939;BME280;67136;47.546;21.630;2024-01-15T03:00:20;98868.91;;;-0.80;100.00
77939;BME280;67136;47.546;21.630;2024-01-15T03:03:22;98869.91;;;-0.69;100.00
77939;BME280;67136;47.546;21.630;2024-01-15T03:06:25;98858.66;;;-0.66;100.00
77939;BME280;67136;47.546;21.630;2024-01-15T03:09:28;98847.19;;;-0.61;99.77
77939;BME280;67136;47.546;21.630;2024-01-15T03:12:31;98851.22;;;-0.57;99.33
77939;BME280;67136;47.546;21.630;2024-01-15T03:15:34;98833.97;;;-0.55;98.99
77939;BME280;67136;47.546;21.630;2024-01-15T03:18:37;98836.16;;;-0.49;98.41
77939;BME280;67136;47.546;21.630;2024-01-15T03:21:39;98836.72;;;-0.44;98.07
77939;BME280;67136;47.546;21.630;2024-01-15T03:24:43;98830.66;;;-0.43;98.00
77939;BME280;67136;47.546;21.630;2024-01-15T03:27:45;98826.81;;;-0.36;97.38
77939;BME280;67136;47.546;21.630;2024-01-15T03:30:48;98830.91;;;-0.33;97.35
77939;BME280;67136;47.546;21.630;2024-01-15T03:33:51;98824.59;;;-0.28;96.80
77939;BME280;67136;47.546;21.630;2024-01-15T03:36:54;98817.22;;;-0.20;96.20
77939;BME280;67136;47.546;21.630;2024-01-15T03:39:56;98813.56;;;-0.16;95.69
77939;BME280;67136;47.546;21.630;2024-01-15T03:42:59;98809.16;;;-0.14;95.70
77939;BME280;67136;47.546;21.630;2024-01-15T03:46:01;98804.91;;;-0.15;95.72
77939;BME280;67136;47.546;21.630;2024-01-15T03:49:04;98797.94;;;-0.13;95.88
77939;BME280;67136;47.546;21.630;2024-01-15T03:52:08;98791.63;;;-0.07;95.72
77939;BME280;67136;47.546;21.630;2024-01-15T03:55:10;98799.41;;;-0.09;95.64
77939;BME280;67136;47.546;21.630;2024-01-15T03:58:13;98783.81;;;-0.06;95.27
77939;BME280;67136;47.546;21.630;2024-01-15T04:01:17;98773.53;;;-0.06;95.28
77939;BME280;67136;47.546;21.630;2024-01-15T04:04:20;98773.75;;;0.04;94.58
77939;BME280;67136;47.546;21.630;2024-01-15T04:07:23;98784.66;;;0.08;94.63
77939;BME280;67136;47.546;21.630;2024-01-15T04:10:25;98767.31;;;0.11;94.09
77939;BME280;67136;47.546;21.630;2024-01-15T04:13:28;98761.06;;;0.15;93.59
77939;BME280;67136;47.546;21.630;2024-01-15T04:16:31;98763.91;;;0.11;94.13
77939;BME280;67136;47.546;21.630;2024-01-15T04:19:34;98752.31;;;0.18;93.98
77939;BME280;67136;47.546;21.630;2024-01-15T04:22:36;98752.84;;;0.23;93.69
77939;BME280;67136;47.546;21.630;2024-01-15T04:25:39;98745.03;;;0.24;93.58
77939;BME280;67136;47.546;21.630;2024-01-15T04:28:45;98749.97;;;0.27;93.59
77939;BME280;67136;47.546;21.630;2024-01-15T04:31:47;98733.31;;;0.20;94.34
77939;BME280;67136;47.546;21.630;2024-01-15T04:34:50;98738.03;;;0.26;94.37
77939;BME280;67136;47.546;21.630;2024-01-15T04:37:54;98736.41;;;0.25;94.63
77939;BME280;67136;47.546;21.630;2024-01-15T04:40:57;98716.84;;;0.23;95.16
77939;BME280;67136;47.546;21.630;2024-01-15T04:44:04;98716.25;;;0.19;95.79
77939;BME280;67136;47.546;21.630;2024-01-15T04:47:07;98711.00;;;0.21;96.03
77939;BME280;67136;47.546;21.630;2024-01-15T04:50:09;98711.09;;;0.19;96.39
77939;BME280;67136;47.546;21.630;2024-01-15T04:53:12;98710.88;;;0.22;96.67
77939;BME280;67136;47.546;21.630;2024-01-15T04:56:14;98706.59;;;0.23;97.01
77939;BME280;67136;47.546;21.630;2024-01-15T04:59:17;98702.28;;;0.23;97.42
77939;BME280;67136;47.546;21.630;2024-01-15T05:02:20;98713.47;;;0.22;97.94
77939;BME280;67136;47.546;21.630;2024-01-15T05:05:23;98701.44;;;0.23;98.48
77939;BME280;67136;47.546;21.630;2024-01-15T05:08:26;98707.50;;;0.22;98.84
77939;BME280;67136;47.546;21.630;2024-01-15T05:11:29;98702.16;;;0.25;99.13
77939;BME280;67136;47.546;21.630;2024-01-15T05:14:31;98684.69;;;0.30;99.33
77939;BME280;67136;47.546;21.630;2024-01-15T05:17:34;98679.56;;;0.30;99.67
77939;BME280;67136;47.546;21.630;2024-01-15T05:20:37;98692.41;;;0.30;100.00
77939;BME280;67136;47.546;21.630;2024-01-15T05:23:39;98704.53;;;0.28;100.00
77939;BME280;67136;47.546;21.630;2024-01-15T05:26:42;98685.72;;;0.27;100.00
77939;BME280;67136;47.546;21.630;2024-01-15T05:29:47;98688.28;;;0.27;100.00
77939;BME280;67136;47.546;21.630;2024-01-15T05:32:49;98668.75;;;0.25;100.00
77939;BME280;67136;47.546;21.630;2024-01-15T05:35:52;98656.81;;;0.24;100.00
77939;BME280;67136;47.546;21.630;2024-01-15T05:38:55;98663.09;;;0.20;100.00
77939;BME280;67136;47.546;21.630;2024-01-15T05:41:58;98667.31;;;0.21;100.00
77939;BME280;67136;47.546;21.630;2024-01-15T05:45:02;98663.22;;;0.18;100.00
77939;BME280;67136;47.546;21.630;2024-01-15T05:48:09;98661.38;;;0.20;100.00
77939;BME280;67136;47.546;21.630;2024-01-15T05:51:12;98656.22;;;0.20;100.00
77939;BME280;67136;47.546;21.630;2024-01-15T05:54:15;98652.09;;;0.18;100.00
77939;BME280;67136;47.546;21.630;2024-01-15T05:57:17;98639.56;;;0.26;100.00
77939;BME280;67136;47.546;21.630;2024-01-15T06:00:20;98638.03;;;0.23;100.00
77939;BME280;67136;47.546;21.630;2024-01-15T06:03:23;98643.16;;;0.23;100.00
77939;BME280;67136;47.546;21.630;2024-01-15T06:06:26;98637.00;;;0.26;100.00
77939;BME280;67136;47.546;21.630;2024-01-15T06:09:29;98638.53;;;0.28;100.00
77939;BME280;67136;47.546;21.630;2024-01-15T06:12:31;98627.22;;;0.31;100.00
77939;BME280;67136;47.546;21.630;2024-01-15T06:15:38;98631.63;;;0.29;100.00
77939;BME280;67136;47.546;21.630;2024-01-15T06:18:40;98645.09;;;0.32;100.00
77939;BME280;67136;47.546;21.630;2024-01-15T06:21:46;98641.19;;;0.39;100.00
77939;BME280;67136;47.546;21.630;2024-01-15T06:24:49;98640.59;;;0.36;100.00
77939;BME280;67136;47.546;21.630;2024-01-15T06:27:53;98651.47;;;0.39;100.00
77939;BME280;67136;47.546;21.630;2024-01-15T06:30:57;98656.50;;;0.41;100.00
77939;BME280;67136;47.546;21.630;2024-01-15T06:33:59;98654.66;;;0.43;100.00
77939;BME280;67136;47.546;21.630;2024-01-15T06:37:02;98667.13;;;0.49;100.00
77939;BME280;67136;47.546;21.630;2024-01-15T06:40:06;98664.63;;;0.47;100.00
77939;BME280;67136;47.546;21.630;2024-01-15T06:43:08;98666.41;;;0.47;100.00
77939;BME280;67136;47.546;21.630;2024-01-15T06:46:11;98675.75;;;0.48;100.00
77939;BME280;67136;47.546;21.630;2024-01-15T06:49:13;98675.03;;;0.46;100.00
77939;BME280;67136;47.546;21.630;2024-01-15T06:52:16;98676.78;;;0.45;100.00
77939;BME280;67136;47.546;21.630;2024-01-15T06:55:19;98663.09;;;0.45;100.00
77939;BME280;67136;47.546;21.630;2024-01-15T06:58:22;98660.13;;;0.38;100.00
77939;BME280;67136;47.546;21.630;2024-01-15T07:01:24;98648.50;;;0.33;100.00
77939;BME280;67136;47.546;21.630;2024-01-15T07:04:27;98653.56;;;0.22;100.00
77939;BME280;67136;47.546;21.630;2024-01-15T07:07:31;98661.25;;;0.22;100.00
77939;BME280;67136;47.546;21.630;2024-01-15T07:10:34;98659.59;;;0.21;100.00
77939;BME280;67136;47.546;21.630;2024-01-15T07:13:38;98663.41;;;0.28;100.00
77939;BME280;67136;47.546;21.630;2024-01-15T07:16:42;98662.69;;;0.38;100.00
77939;BME280;67136;47.546;21.630;2024-01-15T07:19:49;98662.50;;;0.54;100.00
77939;BME280;67136;47.546;21.630;2024-01-15T07:22:52;98657.66;;;0.62;100.00
77939;BME280;67136;47.546;21.630;2024-01-15T07:25:58;98672.31;;;0.72;100.00
77939;BME280;67136;47.546;21.630;2024-01-15T07:29:01;98674.37;;;0.80;100.00
77939;BME280;67136;47.546;21.630;2024-01-15T07:32:04;98661.91;;;0.86;100.00
77939;BME280;67136;47.546;21.630;2024-01-15T07:35:07;98678.28;;;0.85;100.00
77939;BME280;67136;47.546;21.630;2024-01-15T07:38:09;98673.44;;;0.81;100.00
77939;BME280;67136;47.546;21.630;2024-01-15T07:41:15;98665.03;;;0.79;100.00
77939;BME280;67136;47.546;21.630;2024-01-15T07:44:19;98661.31;;;0.83;100.00
77939;BME280;67136;47.546;21.630;2024-01-15T07:47:22;98667.75;;;1.01;100.00
77939;BME280;67136;47.546;21.630;2024-01-15T07:50:24;98666.69;;;1.40;100.00
77939;BME280;67136;47.546;21.630;2024-01-15T07:53:27;98651.78;;;1.79;100.00
77939;BME280;67136;47.546;21.630;2024-01-15T07:56:30;98668.44;;;1.97;100.00
77939;BME280;67136;47.546;21.630;2024-01-15T07:59:35;98660.53;;;2.11;99.85
77939;BME280;67136;47.546;21.630;2024-01-15T08:02:37;98660.53;;;2.22;98.68
77939;BME280;67136;47.546;21.630;2024-01-15T08:05:41;98665.22;;;2.17;98.47
77939;BME280;67136;47.546;21.630;2024-01-15T08:08:44;98670.41;;;1.83;100.00
77939;BME280;67136;47.546;21.630;2024-01-15T08:11:47;98663.00;;;1.78;100.00
77939;BME280;67136;47.546;21.630;2024-01-15T08:14:52;98667.41;;;1.65;100.00
77939;BME280;67136;47.546;21.630;2024-01-15T08:17:58;98655.69;;;1.61;100.00
77939;BME280;67136;47.546;21.630;2024-01-15T08:21:01;98659.19;;;1.60;100.00
77939;BME280;67136;47.546;21.630;2024-01-15T08:24:05;98648.28;;;1.57;100.00
77939;BME280;67136;47.546;21.630;2024-01-15T08:27:08;98661.25;;;1.55;100.00
77939;BME280;67136;47.546;21.630;2024-01-15T08:30:12;98662.94;;;1.56;100.00
77939;BME280;67136;47.546;21.630;2024-01-15T08:33:14;98670.97;;;1.52;100.00
77939;BME280;67136;47.546;21.630;2024-01-15T08:36:24;98665.88;;;1.39;100.00
77939;BME280;67136;47.546;21.630;2024-01-15T08:39:28;98674.13;;;1.32;100.00
77939;BME280;67136;47.546;21.630;2024-01-15T08:42:31;98661.31;;;1.19;100.00
77939;BME280;67136;47.546;21.630;2024-01-15T08:45:37;98667.59;;;1.15;100.00
77939;BME280;67136;47.546;21.630;2024-01-15T08:48:40;98673.69;;;1.14;100.00
77939;BME280;67136;47.546;21.630;2024-01-15T08:51:42;98666.59;;;1.05;100.00
77939;BME280;67136;47.546;21.630;2024-01-15T08:54:45;98662.50;;;1.02;100.00
77939;BME280;67136;47.546;21.630;2024-01-15T08:57:48;98664.81;;;1.18;100.00
77939;BME280;67136;47.546;21.630;2024-01-15T09:00:51;98650.72;;;1.11;100.00
77939;BME280;67136;47.546;21.630;2024-01-15T09:03:54;98648.06;;;1.12;100.00
77939;BME280;67136;47.546;21.630;2024-01-15T09:07:02;98641.25;;;1.11;100.00
77939;BME280;67136;47.546;21.630;2024-01-15T09:10:04;98645.06;;;1.06;100.00
77939;BME280;67136;47.546;21.630;2024-01-15T09:13:07;98649.16;;;0.97;100.00
77939;BME280;67136;47.546;21.630;2024-01-15T09:16:10;98649.03;;;0.99;100.00
77939;BME280;67136;47.546;21.630;2024-01-15T09:19:13;98645.75;;;0.97;100.00
77939;BME280;67136;47.546;21.630;2024-01-15T09:22:16;98655.59;;;1.03;100.00
77939;BME280;67136;47.546;21.630;2024-01-15T09:25:25;98655.69;;;1.14;100.00
77939;BME280;67136;47.546;21.630;2024-01-15T09:28:27;98655.84;;;1.23;98.96
77939;BME280;67136;47.546;21.630;2024-01-15T09:31:33;98655.41;;;1.29;97.30
77939;BME280;67136;47.546;21.630;2024-01-15T09:34:36;98648.22;;;1.22;97.17
77939;BME280;67136;47.546;21.630;2024-01-15T09:37:39;98650.31;;;1.17;98.54
77939;BME280;67136;47.546;21.630;2024-01-15T09:40:49;98666.16;;;1.11;99.00
77939;BME280;67136;47.546;21.630;2024-01-15T09:43:53;98669.69;;;1.10;99.40
77939;BME280;67136;47.546;21.630;2024-01-15T09:46:56;98661.00;;;1.11;99.59
77939;BME280;67136;47.546;21.630;2024-01-15T09:49:59;98665.91;;;1.26;97.46
77939;BME280;67136;47.546;21.630;2024-01-15T09:53:05;98660.63;;;1.64;95.50
77939;BME280;67136;47.546;21.630;2024-01-15T09:56:08;98662.81;;;2.82;89.59
77939;BME280;67136;47.546;21.630;2024-01-15T09:59:16;98678.41;;;2.81;86.73
77939;BME280;67136;47.546;21.630;2024-01-15T10:02:19;98676.53;;;2.72;87.94
77939;BME280;67136;47.546;21.630;2024-01-15T10:05:23;98675.13;;;2.90;86.20
77939;BME280;67136;47.546;21.630;2024-01-15T10:08:25;98676.06;;;2.89;86.09
77939;BME280;67136;47.546;21.630;2024-01-15T10:11:28;98675.78;;;3.25;85.02
77939;BME280;67136;47.546;21.630;2024-01-15T10:14:30;98680.22;;;3.34;82.84
77939;BME280;67136;47.546;21.630;2024-01-15T10:17:36;98672.63;;;3.21;82.65
77939;BME280;67136;47.546;21.630;2024-01-15T10:20:39;98669.91;;;3.34;79.99
77939;BME280;67136;47.546;21.630;2024-01-15T10:23:43;98671.53;;;3.35;78.19
77939;BME280;67136;47.546;21.630;2024-01-15T10:26:46;98671.53;;;3.35;77.61
77939;BME280;67136;47.546;21.630;2024-01-15T10:29:49;98659.28;;;3.48;76.08
77939;BME280;67136;47.546;21.630;2024-01-15T10:32:59;98645.34;;;3.71;75.34
77939;BME280;67136;47.546;21.630;2024-01-15T10:36:09;98644.66;;;3.37;75.28
77939;BME280;67136;47.546;21.630;2024-01-15T10:39:13;98644.06;;;3.34;75.96
77939;BME280;67136;47.546;21.630;2024-01-15T10:42:18;98646.13;;;3.51;74.62
77939;BME280;67136;47.546;21.630;2024-01-15T10:45:22;98637.22;;;3.75;73.31
77939;BME280;67136;47.546;21.630;2024-01-15T10:48:24;98641.94;;;3.39;74.23
77939;BME280;67136;47.546;21.630;2024-01-15T10:51:29;98631.88;;;3.25;74.80
77939;BME280;67136;47.546;21.630;2024-01-15T10:54:32;98634.56;;;3.66;74.47
77939;BME280;67136;47.546;21.630;2024-01-15T10:57:38;98637.19;;;3.55;74.89
77939;BME280;67136;47.546;21.630;2024-01-15T11:00:41;98626.59;;;3.58;75.67
77939;BME280;67136;47.546;21.630;2024-01-15T11:03:44;98635.22;;;3.47;76.22
77939;BME280;67136;47.546;21.630;2024-01-15T11:06:50;98616.03;;;3.61;74.69
77939;BME280;67136;47.546;21.630;2024-01-15T11:09:53;98622.91;;;3.92;73.81
77939;BME280;67136;47.546;21.630;2024-01-15T11:12:55;98625.81;;;4.19;72.79
77939;BME280;67136;47.546;21.630;2024-01-15T11:16:00;98633.22;;;3.71;72.48
77939;BME280;67136;47.546;21.630;2024-01-15T11:19:05;98637.50;;;3.41;72.57
77939;BME280;67136;47.546;21.630;2024-01-15T11:25:35;98639.66;;;3.03;68.01
77939;BME280;67136;47.546;21.630;2024-01-15T11:28:47;98615.06;;;2.88;68.08
77939;BME280;67136;47.546;21.630;2024-01-15T11:32:16;98617.16;;;2.83;68.41
77939;BME280;67136;47.546;21.630;2024-01-15T11:35:22;98625.03;;;2.81;68.63
77939;BME280;67136;47.546;21.630;2024-01-15T11:38:30;98617.66;;;2.66;68.85
77939;BME280;67136;47.546;21.630;2024-01-15T11:41:39;98605.00;;;2.63;69.06
77939;BME280;67136;47.546;21.630;2024-01-15T11:44:44;98613.87;;;2.81;69.04
77939;BME280;67136;47.546;21.630;2024-01-15T11:48:14;98611.56;;;2.89;69.31
77939;BME280;67136;47.546;21.630;2024-01-15T11:51:20;98610.75;;;2.66;69.65
77939;BME280;67136;47.546;21.630;2024-01-15T11:54:24;98602.19;;;2.77;69.83
77939;BME280;67136;47.546;21.630;2024-01-15T11:57:47;98595.59;;;2.73;69.88
77939;BME280;67136;47.546;21.630;2024-01-15T12:00:52;98617.41;;;2.80;69.61
77939;BME280;67136;47.546;21.630;2024-01-15T12:03:57;98612.13;;;2.92;69.47
77939;BME280;67136;47.546;21.630;2024-01-15T12:07:01;98608.25;;;2.76;69.49
77939;BME280;67136;47.546;21.630;2024-01-15T12:10:11;98613.69;;;2.84;69.05
77939;BME280;67136;47.546;21.630;2024-01-15T12:13:16;98617.06;;;2.84;69.41
77939;BME280;67136;47.546;21.630;2024-01-15T12:16:20;98605.19;;;3.04;68.87
77939;BME280;67136;47.546;21.630;2024-01-15T12:19:23;98602.56;;;3.15;68.57
77939;BME280;67136;47.546;21.630;2024-01-15T12:22:26;98611.09;;;3.26;68.61
77939;BME280;67136;47.546;21.630;2024-01-15T12:25:31;98611.84;;;3.17;68.57
77939;BME280;67136;47.546;21.630;2024-01-15T12:28:34;98602.09;;;3.10;69.16
77939;BME280;67136;47.546;21.630;2024-01-15T12:31:36;98589.09;;;3.43;69.94
77939;BME280;67136;47.546;21.630;2024-01-15T12:34:39;98588.22;;;3.22;74.94
77939;BME280;67136;47.546;21.630;2024-01-15T12:37:43;98592.25;;;3.15;76.51
77939;BME280;67136;47.546;21.630;2024-01-15T12:40:46;98579.97;;;3.39;76.18
77939;BME280;67136;47.546;21.630;2024-01-15T12:43:51;98569.06;;;2.93;77.79
77939;BME280;67136;47.546;21.630;2024-01-15T12:46:55;98567.44;;;2.81;79.12
77939;BME280;67136;47.546;21.630;2024-01-15T12:49:58;98571.72;;;2.48;81.73
77939;BME280;67136;47.546;21.630;2024-01-15T12:53:17;98562.81;;;2.30;82.06
77939;BME280;67136;47.546;21.630;2024-01-15T12:56:20;98578.75;;;2.24;83.03
77939;BME280;67136;47.546;21.630;2024-01-15T12:59:23;98556.25;;;2.37;81.89
77939;BME280;67136;47.546;21.630;2024-01-15T13:02:25;98559.53;;;2.28;77.63
77939;BME280;67136;47.546;21.630;2024-01-15T13:05:29;98556.38;;;2.25;82.17
77939;BME280;67136;47.546;21.630;2024-01-15T13:08:34;98554.94;;;2.32;82.32
77939;BME280;67136;47.546;21.630;2024-01-15T13:11:37;98559.75;;;2.25;82.96
77939;BME280;67136;47.546;21.630;2024-01-15T13:14:39;98553.06;;;2.12;83.41
77939;BME280;67136;47.546;21.630;2024-01-15T13:17:43;98551.88;;;1.94;84.30
77939;BME280;67136;47.546;21.630;2024-01-15T13:20:46;98547.22;;;1.88;81.35
77939;BME280;67136;47.546;21.630;2024-01-15T13:23:49;98547.78;;;1.80;79.02
77939;BME280;67136;47.546;21.630;2024-01-15T13:26:52;98546.16;;;1.79;76.66
77939;BME280;67136;47.546;21.630;2024-01-15T13:29:55;98552.47;;;1.86;76.72
77939;BME280;67136;47.546;21.630;2024-01-15T13:32:57;98549.62;;;1.78;76.83
77939;BME280;67136;47.546;21.630;2024-01-15T13:36:06;98560.63;;;1.69;76.44
77939;BME280;67136;47.546;21.630;2024-01-15T13:39:12;98558.22;;;2.01;75.35
77939;BME280;67136;47.546;21.630;2024-01-15T13:42:18;98567.72;;;2.44;74.93
77939;BME280;67136;47.546;21.630;2024-01-15T13:45:20;98560.25;;;6.22;60.48
77939;BME280;67136;47.546;21.630;2024-01-15T13:48:23;98561.56;;;4.54;65.53
77939;BME280;67136;47.546;21.630;2024-01-15T13:51:26;98577.34;;;2.53;71.34
77939;BME280;67136;47.546;21.630;2024-01-15T13:54:28;98570.53;;;2.19;74.32
77939;BME280;67136;47.546;21.630;2024-01-15T13:57:49;98585.53;;;2.70;74.29
77939;BME280;67136;47.546;21.630;2024-01-15T14:00:52;98570.16;;;3.74;70.91
77939;BME280;67136;47.546;21.630;2024-01-15T14:03:55;98574.75;;;2.65;74.05
77939;BME280;67136;47.546;21.630;2024-01-15T14:06:57;98580.75;;;2.10;76.62
77939;BME280;67136;47.546;21.630;2024-01-15T14:10:00;98586.09;;;2.95;74.08
77939;BME280;67136;47.546;21.630;2024-01-15T14:13:03;98577.22;;;3.72;67.31
77939;BME280;67136;47.546;21.630;2024-01-15T14:16:06;98581.78;;;2.74;73.66
77939;BME280;67136;47.546;21.630;2024-01-15T14:19:08;98572.91;;;3.41;69.10
77939;BME280;67136;47.546;21.630;2024-01-15T14:22:12;98560.63;;;4.25;65.01
77939;BME280;67136;47.546;21.630;2024-01-15T14:25:15;98552.22;;;2.55;72.36
77939;BME280;67136;47.546;21.630;2024-01-15T14:28:17;98542.06;;;2.43;74.95
77939;BME280;67136;47.546;21.630;2024-01-15T14:31:20;98536.78;;;1.89;81.40
77939;BME280;67136;47.546;21.630;2024-01-15T14:34:23;98527.50;;;1.19;86.93
77939;BME280;67136;47.546;21.630;2024-01-15T14:37:27;98518.97;;;0.95;91.16
77939;BME280;67136;47.546;21.630;2024-01-15T14:40:29;98522.63;;;0.80;94.36
77939;BME280;67136;47.546;21.630;2024-01-15T14:43:35;98516.72;;;0.67;95.97
77939;BME280;67136;47.546;21.630;2024-01-15T14:46:39;98513.88;;;0.59;97.79
77939;BME280;67136;47.546;21.630;2024-01-15T14:49:42;98526.88;;;0.45;99.05
77939;BME280;67136;47.546;21.630;2024-01-15T14:52:45;98526.97;;;0.43;100.00
77939;BME280;67136;47.546;21.630;2024-01-15T14:55:48;98526.72;;;0.23;100.00
77939;BME280;67136;47.546;21.630;2024-01-15T14:58:53;98520.75;;;0.22;100.00
77939;BME280;67136;47.546;21.630;2024-01-15T15:01:58;98516.22;;;0.26;100.00
77939;BME280;67136;47.546;21.630;2024-01-15T15:05:02;98518.50;;;0.18;100.00
77939;BME280;67136;47.546;21.630;2024-01-15T15:08:05;98516.72;;;0.31;100.00
77939;BME280;67136;47.546;21.630;2024-01-15T15:11:11;98514.37;;;0.28;100.00
77939;BME280;67136;47.546;21.630;2024-01-15T15:14:13;98501.19;;;0.32;100.00
77939;BME280;67136;47.546;21.630;2024-01-15T15:17:16;98503.88;;;0.31;100.00
77939;BME280;67136;47.546;21.630;2024-01-15T15:20:18;98515.37;;;0.38;100.00
77939;BME280;67136;47.546;21.630;2024-01-15T15:23:21;98506.31;;;0.32;100.00
77939;BME280;67136;47.546;21.630;2024-01-15T15:26:24;98509.00;;;0.31;100.00
77939;BME280;67136;47.546;21.630;2024-01-15T15:29:27;98502.13;;;0.31;100.00
77939;BME280;67136;47.546;21.630;2024-01-15T15:32:31;98500.19;;;0.22;100.00
77939;BME280;67136;47.546;21.630;2024-01-15T15:35:33;98511.06;;;0.26;100.00
77939;BME280;67136;47.546;21.630;2024-01-15T15:38:36;98514.06;;;0.20;100.00
77939;BME280;67136;47.546;21.630;2024-01-15T15:41:39;98523.81;;;0.27;100.00
77939;BME280;67136;47.546;21.630;2024-01-15T15:44:41;98534.91;;;0.28;100.00
77939;BME280;67136;47.546;21.630;2024-01-15T15:47:49;98540.88;;;0.28;100.00
77939;BME280;67136;47.546;21.630;2024-01-15T15:50:51;98544.97;;;0.31;100.00
77939;BME280;67136;47.546;21.630;2024-01-15T15:53:54;98546.66;;;0.32;100.00
77939;BME280;67136;47.546;21.630;2024-01-15T15:56:57;98546.81;;;0.29;100.00
77939;BME280;67136;47.546;21.630;2024-01-15T16:00:00;98548.06;;;0.36;98.66
77939;BME280;67136;47.546;21.630;2024-01-15T16:03:13;98537.87;;;0.34;98.22
77939;BME280;67136;47.546;21.630;2024-01-15T16:06:18;98539.44;;;0.37;97.81